sensor_id;sensor_type;location;lat;lon;timestamp;temperature;humidity
21592;DHT22;10958;50.892;3.992;2023-02-04T00:02:00;10.10;99.90
21592;DHT22;10958;50.892;3.992;2023-02-04T00:04:28;10.10;99.90
21592;DHT22;10958;50.892;3.992;2023-02-04T00:06:54;10.10;99.90
21592;DHT22;10958;50.892;3.992;2023-02-04T00:09:20;10.10;99.90
21592;DHT22;10958;50.892;3.992;2023-02-04T00:11:46;10.10;99.90
21592;DHT22;10958;50.892;3.992;2023-02-04T00:14:11;10.10;99.90
21592;DHT22;10958;50.892;3.992;2023-02-04T00:16:40;10.10;99.90
21592;DHT22;10958;50.892;3.992;2023-02-04T00:19:05;10.10;99.90
21592;DHT22;10958;50.892;3.992;2023-02-04T00:21:31;10.20;99.90
21592;DHT22;10958;50.892;3.992;2023-02-04T00:23:59;10.20;99.90
21592;DHT22;10958;50.892;3.992;2023-02-04T00:26:27;10.10;99.90
21592;DHT22;10958;50.892;3.992;2023-02-04T00:28:53;10.10;99.90
21592;DHT22;10958;50.892;3.992;2023-02-04T00:31:19;10.10;99.90
21592;DHT22;10958;50.892;3.992;2023-02-04T00:33:45;10.10;99.90
21592;DHT22;10958;50.892;3.992;2023-02-04T00:36:10;10.00;99.90
21592;DHT22;10958;50.892;3.992;2023-02-04T00:38:36;10.10;99.90
21592;DHT22;10958;50.892;3.992;2023-02-04T00:41:02;10.10;99.90
21592;DHT22;10958;50.892;3.992;2023-02-04T00:43:28;10.10;99.90
21592;DHT22;10958;50.892;3.992;2023-02-04T00:45:54;10.20;99.90
21592;DHT22;10958;50.892;3.992;2023-02-04T00:48:20;10.20;99.90
21592;DHT22;10958;50.892;3.992;2023-02-04T00:50:45;10.20;99.90
21592;DHT22;10958;50.892;3.992;2023-02-04T00:53:11;10.10;99.90
21592;DHT22;10958;50.892;3.992;2023-02-04T00:55:37;10.00;99.90
21592;DHT22;10958;50.892;3.992;2023-02-04T00:58:05;10.10;99.90
21592;DHT22;10958;50.892;3.992;2023-02-04T01:00:31;10.10;99.90
21592;DHT22;10958;50.892;3.992;2023-02-04T01:02:57;10.10;99.90
21592;DHT22;10958;50.892;3.992;2023-02-04T01:05:23;10.20;99.90
21592;DHT22;10958;50.892;3.992;2023-02-04T01:07:49;10.00;99.90
21592;DHT22;10958;50.892;3.992;2023-02-04T01:10:14;10.00;99.90
21592;DHT22;10958;50.892;3.992;2023-02-04T01:12:42;10.00;99.90
21592;DHT22;10958;50.892;3.992;2023-02-04T01:15:09;9.90;99.90
21592;DHT22;10958;50.892;3.992;2023-02-04T01:17:35;9.90;99.90
21592;DHT22;10958;50.892;3.992;2023-02-04T01:20:01;9.90;99.90
21592;DHT22;10958;50.892;3.992;2023-02-04T01:22:29;9.90;99.90
21592;DHT22;10958;50.892;3.992;2023-02-04T01:24:58;9.90;99.90
21592;DHT22;10958;50.892;3.992;2023-02-04T01:27:24;9.90;99.90
21592;DHT22;10958;50.892;3.992;2023-02-04T01:29:50;9.90;99.90
21592;DHT22;10958;50.892;3.992;2023-02-04T01:32:15;9.90;99.90
21592;DHT22;10958;50.892;3.992;2023-02-04T01:34:41;9.70;99.90
21592;DHT22;10958;50.892;3.992;2023-02-04T01:37:08;9.80;99.90
21592;DHT22;10958;50.892;3.992;2023-02-04T01:39:34;9.70;99.90
21592;DHT22;10958;50.892;3.992;2023-02-04T01:42:01;9.80;99.90
21592;DHT22;10958;50.892;3.992;2023-02-04T01:44:30;9.90;99.90
21592;DHT22;10958;50.892;3.992;2023-02-04T01:46:56;9.80;99.90
21592;DHT22;10958;50.892;3.992;2023-02-04T01:49:24;9.90;99.90
21592;DHT22;10958;50.892;3.992;2023-02-04T01:51:50;9.80;99.90
21592;DHT22;10958;50.892;3.992;2023-02-04T01:54:19;9.80;99.90
21592;DHT22;10958;50.892;3.992;2023-02-04T01:56:46;9.80;99.90
21592;DHT22;10958;50.892;3.992;2023-02-04T01:59:15;9.70;99.90
21592;DHT22;10958;50.892;3.992;2023-02-04T02:01:44;9.70;99.90
21592;DHT22;10958;50.892;3.992;2023-02-04T02:04:13;9.60;99.90
21592;DHT22;10958;50.892;3.992;2023-02-04T02:06:47;9.60;99.90
21592;DHT22;10958;50.892;3.992;2023-02-04T02:09:15;9.60;99.90
21592;DHT22;10958;50.892;3.992;2023-02-04T02:11:43;9.70;99.90
21592;DHT22;10958;50.892;3.992;2023-02-04T02:14:09;9.70;99.90
21592;DHT22;10958;50.892;3.992;2023-02-04T02:16:36;9.70;99.90
21592;DHT22;10958;50.892;3.992;2023-02-04T02:21:40;9.80;99.90
21592;DHT22;10958;50.892;3.992;2023-02-04T02:26:54;9.80;99.90
21592;DHT22;10958;50.892;3.992;2023-02-04T02:29:21;9.70;99.90
21592;DHT22;10958;50.892;3.992;2023-02-04T02:31:47;9.70;99.90
21592;DHT22;10958;50.892;3.992;2023-02-04T02:34:13;9.80;99.90
21592;DHT22;10958;50.892;3.992;2023-02-04T02:36:39;9.70;99.90
21592;DHT22;10958;50.892;3.992;2023-02-04T02:39:05;9.70;99.90
21592;DHT22;10958;50.892;3.992;2023-02-04T02:41:37;9.80;99.90
21592;DHT22;10958;50.892;3.992;2023-02-04T02:44:03;9.70;99.90
21592;DHT22;10958;50.892;3.992;2023-02-04T02:46:28;9.70;99.90
21592;DHT22;10958;50.892;3.992;2023-02-04T02:48:54;9.80;99.90
21592;DHT22;10958;50.892;3.992;2023-02-04T02:51:20;9.80;99.90
21592;DHT22;10958;50.892;3.992;2023-02-04T02:53:49;9.90;99.90
21592;DHT22;10958;50.892;3.992;2023-02-04T02:56:16;9.80;99.90
21592;DHT22;10958;50.892;3.992;2023-02-04T02:58:45;9.80;99.90
21592;DHT22;10958;50.892;3.992;2023-02-04T03:01:11;9.70;99.90
21592;DHT22;10958;50.892;3.992;2023-02-04T03:03:48;9.70;99.90
21592;DHT22;10958;50.892;3.992;2023-02-04T03:06:23;9.60;99.90
21592;DHT22;10958;50.892;3.992;2023-02-04T03:08:52;9.60;99.90
21592;DHT22;10958;50.892;3.992;2023-02-04T03:11:21;9.60;99.90
21592;DHT22;10958;50.892;3.992;2023-02-04T03:13:49;9.70;99.90
21592;DHT22;10958;50.892;3.992;2023-02-04T03:16:15;9.60;99.90
21592;DHT22;10958;50.892;3.992;2023-02-04T03:18:41;9.70;99.90
21592;DHT22;10958;50.892;3.992;2023-02-04T03:21:09;9.60;99.90
21592;DHT22;10958;50.892;3.992;2023-02-04T03:23:35;9.60;99.90
21592;DHT22;10958;50.892;3.992;2023-02-04T03:26:03;9.50;99.90
21592;DHT22;10958;50.892;3.992;2023-02-04T03:28:29;9.50;99.90
21592;DHT22;10958;50.892;3.992;2023-02-04T03:30:58;9.50;99.90
21592;DHT22;10958;50.892;3.992;2023-02-04T03:33:26;9.50;99.90
21592;DHT22;10958;50.892;3.992;2023-02-04T03:35:58;9.50;99.90
21592;DHT22;10958;50.892;3.992;2023-02-04T03:38:27;9.50;99.90
21592;DHT22;10958;50.892;3.992;2023-02-04T03:40:54;9.50;99.90
21592;DHT22;10958;50.892;3.992;2023-02-04T03:43:20;9.50;99.90
21592;DHT22;10958;50.892;3.992;2023-02-04T03:45:46;9.50;99.90
21592;DHT22;10958;50.892;3.992;2023-02-04T03:48:12;9.60;99.90
21592;DHT22;10958;50.892;3.992;2023-02-04T03:50:41;9.50;99.90
21592;DHT22;10958;50.892;3.992;2023-02-04T03:53:07;9.50;99.90
21592;DHT22;10958;50.892;3.992;2023-02-04T03:55:32;9.40;99.90
21592;DHT22;10958;50.892;3.992;2023-02-04T03:57:58;9.50;99.90
21592;DHT22;10958;50.892;3.992;2023-02-04T04:00:24;9.40;99.90
21592;DHT22;10958;50.892;3.992;2023-02-04T04:02:50;9.40;99.90
21592;DHT22;10958;50.892;3.992;2023-02-04T04:05:18;9.50;99.90
21592;DHT22;10958;50.892;3.992;2023-02-04T04:07:44;9.50;99.90
21592;DHT22;10958;50.892;3.992;2023-02-04T04:10:10;9.50;99.90
21592;DHT22;10958;50.892;3.992;2023-02-04T04:12:36;9.50;99.90
21592;DHT22;10958;50.892;3.992;2023-02-04T04:15:03;9.50;99.90
21592;DHT22;10958;50.892;3.992;2023-02-04T04:17:29;9.50;99.90
21592;DHT22;10958;50.892;3.992;2023-02-04T04:19:55;9.50;99.90
21592;DHT22;10958;50.892;3.992;2023-02-04T04:22:24;9.40;99.90
21592;DHT22;10958;50.892;3.992;2023-02-04T04:24:49;9.40;99.90
21592;DHT22;10958;50.892;3.992;2023-02-04T04:27:15;9.40;99.90
21592;DHT22;10958;50.892;3.992;2023-02-04T04:29:43;9.40;99.90
21592;DHT22;10958;50.892;3.992;2023-02-04T04:32:09;9.40;99.90
21592;DHT22;10958;50.892;3.992;2023-02-04T04:34:35;9.50;99.90
21592;DHT22;10958;50.892;3.992;2023-02-04T04:37:01;9.50;99.90
21592;DHT22;10958;50.892;3.992;2023-02-04T04:39:30;9.40;99.90
21592;DHT22;10958;50.892;3.992;2023-02-04T04:41:58;9.60;99.90
21592;DHT22;10958;50.892;3.992;2023-02-04T04:44:24;9.50;99.90
21592;DHT22;10958;50.892;3.992;2023-02-04T04:46:50;9.60;99.90
21592;DHT22;10958;50.892;3.992;2023-02-04T04:49:20;9.60;99.90
21592;DHT22;10958;50.892;3.992;2023-02-04T04:51:46;9.70;99.90
21592;DHT22;10958;50.892;3.992;2023-02-04T04:54:12;9.80;99.90
21592;DHT22;10958;50.892;3.992;2023-02-04T04:56:38;9.70;99.90
21592;DHT22;10958;50.892;3.992;2023-02-04T04:59:04;9.70;99.90
21592;DHT22;10958;50.892;3.992;2023-02-04T05:01:31;9.60;99.90
21592;DHT22;10958;50.892;3.992;2023-02-04T05:03:59;9.70;99.90
21592;DHT22;10958;50.892;3.992;2023-02-04T05:06:25;9.60;99.90
21592;DHT22;10958;50.892;3.992;2023-02-04T05:08:52;9.60;99.90
21592;DHT22;10958;50.892;3.992;2023-02-04T05:11:23;9.60;99.90
21592;DHT22;10958;50.892;3.992;2023-02-04T05:13:50;9.60;99.90
21592;DHT22;10958;50.892;3.992;2023-02-04T05:16:18;9.60;99.90
21592;DHT22;10958;50.892;3.992;2023-02-04T05:19:18;9.50;99.90
21592;DHT22;10958;50.892;3.992;2023-02-04T05:22:18;9.50;99.90
21592;DHT22;10958;50.892;3.992;2023-02-04T05:27:44;9.30;99.90
21592;DHT22;10958;50.892;3.992;2023-02-04T05:30:12;9.40;99.90
21592;DHT22;10958;50.892;3.992;2023-02-04T05:32:39;9.40;99.90
21592;DHT22;10958;50.892;3.992;2023-02-04T05:35:20;9.30;99.90
21592;DHT22;10958;50.892;3.992;2023-02-04T05:37:49;9.40;99.90
21592;DHT22;10958;50.892;3.992;2023-02-04T05:40:18;9.30;99.90
21592;DHT22;10958;50.892;3.992;2023-02-04T05:42:55;9.40;99.90
21592;DHT22;10958;50.892;3.992;2023-02-04T05:45:23;9.40;99.90
21592;DHT22;10958;50.892;3.992;2023-02-04T05:47:59;9.40;99.90
21592;DHT22;10958;50.892;3.992;2023-02-04T05:50:46;9.50;99.90
21592;DHT22;10958;50.892;3.992;2023-02-04T05:53:14;9.50;99.90
21592;DHT22;10958;50.892;3.992;2023-02-04T05:56:20;9.50;99.90
21592;DHT22;10958;50.892;3.992;2023-02-04T05:59:02;9.50;99.90
21592;DHT22;10958;50.892;3.992;2023-02-04T06:01:39;9.50;99.90
21592;DHT22;10958;50.892;3.992;2023-02-04T06:04:08;9.40;99.90
21592;DHT22;10958;50.892;3.992;2023-02-04T06:06:34;9.50;99.90
21592;DHT22;10958;50.892;3.992;2023-02-04T06:09:00;9.40;99.90
21592;DHT22;10958;50.892;3.992;2023-02-04T06:11:41;9.50;99.90
21592;DHT22;10958;50.892;3.992;2023-02-04T06:14:07;9.50;99.90
21592;DHT22;10958;50.892;3.992;2023-02-04T06:16:39;9.50;99.90
21592;DHT22;10958;50.892;3.992;2023-02-04T06:19:07;9.40;99.90
21592;DHT22;10958;50.892;3.992;2023-02-04T06:21:39;9.40;99.90
21592;DHT22;10958;50.892;3.992;2023-02-04T06:24:11;9.40;99.90
21592;DHT22;10958;50.892;3.992;2023-02-04T06:26:41;9.30;99.90
21592;DHT22;10958;50.892;3.992;2023-02-04T06:29:07;9.40;99.90
21592;DHT22;10958;50.892;3.992;2023-02-04T06:31:37;9.40;99.90
21592;DHT22;10958;50.892;3.992;2023-02-04T06:34:11;9.40;99.90
21592;DHT22;10958;50.892;3.992;2023-02-04T06:36:46;9.40;99.90
21592;DHT22;10958;50.892;3.992;2023-02-04T06:39:13;9.40;99.90
21592;DHT22;10958;50.892;3.992;2023-02-04T06:41:39;9.40;99.90
21592;DHT22;10958;50.892;3.992;2023-02-04T06:44:05;9.50;99.90
21592;DHT22;10958;50.892;3.992;2023-02-04T06:46:34;9.60;99.90
21592;DHT22;10958;50.892;3.992;2023-02-04T06:49:10;9.50;99.90
21592;DHT22;10958;50.892;3.992;2023-02-04T06:51:36;9.40;99.90
21592;DHT22;10958;50.892;3.992;2023-02-04T06:54:02;9.40;99.90
21592;DHT22;10958;50.892;3.992;2023-02-04T06:56:37;9.50;99.90
21592;DHT22;10958;50.892;3.992;2023-02-04T06:59:18;9.50;99.90
21592;DHT22;10958;50.892;3.992;2023-02-04T07:01:45;9.40;99.90
21592;DHT22;10958;50.892;3.992;2023-02-04T07:04:38;9.30;99.90
21592;DHT22;10958;50.892;3.992;2023-02-04T07:07:18;9.30;99.90
21592;DHT22;10958;50.892;3.992;2023-02-04T07:09:51;9.20;99.90
21592;DHT22;10958;50.892;3.992;2023-02-04T07:15:24;9.20;99.90
21592;DHT22;10958;50.892;3.992;2023-02-04T07:17:53;9.30;99.90
21592;DHT22;10958;50.892;3.992;2023-02-04T07:20:36;9.30;99.90
21592;DHT22;10958;50.892;3.992;2023-02-04T07:23:09;9.40;99.90
21592;DHT22;10958;50.892;3.992;2023-02-04T07:25:48;9.40;99.90
21592;DHT22;10958;50.892;3.992;2023-02-04T07:28:32;9.50;99.90
21592;DHT22;10958;50.892;3.992;2023-02-04T07:31:08;9.40;99.90
21592;DHT22;10958;50.892;3.992;2023-02-04T07:33:50;9.40;99.90
21592;DHT22;10958;50.892;3.992;2023-02-04T07:36:24;9.50;99.90
21592;DHT22;10958;50.892;3.992;2023-02-04T07:39:09;9.50;99.90
21592;DHT22;10958;50.892;3.992;2023-02-04T07:41:41;9.50;99.90
21592;DHT22;10958;50.892;3.992;2023-02-04T07:44:20;9.60;99.90
21592;DHT22;10958;50.892;3.992;2023-02-04T07:46:58;9.60;99.90
21592;DHT22;10958;50.892;3.992;2023-02-04T07:52:24;9.60;99.90
21592;DHT22;10958;50.892;3.992;2023-02-04T07:55:20;9.40;99.90
21592;DHT22;10958;50.892;3.992;2023-02-04T07:57:53;9.50;99.90
21592;DHT22;10958;50.892;3.992;2023-02-04T08:00:25;9.50;99.90
21592;DHT22;10958;50.892;3.992;2023-02-04T08:03:35;9.50;99.90
21592;DHT22;10958;50.892;3.992;2023-02-04T08:06:12;9.50;99.90
21592;DHT22;10958;50.892;3.992;2023-02-04T08:08:52;9.60;99.90
21592;DHT22;10958;50.892;3.992;2023-02-04T08:11:41;9.70;99.90
21592;DHT22;10958;50.892;3.992;2023-02-04T08:14:17;9.80;99.90
21592;DHT22;10958;50.892;3.992;2023-02-04T08:20:38;9.70;99.90
21592;DHT22;10958;50.892;3.992;2023-02-04T08:23:37;9.70;99.90
21592;DHT22;10958;50.892;3.992;2023-02-04T08:26:28;9.70;99.90
21592;DHT22;10958;50.892;3.992;2023-02-04T08:29:02;10.00;99.90
21592;DHT22;10958;50.892;3.992;2023-02-04T08:31:38;10.10;99.90
21592;DHT22;10958;50.892;3.992;2023-02-04T08:34:49;10.10;99.90
21592;DHT22;10958;50.892;3.992;2023-02-04T08:37:21;10.10;99.90
21592;DHT22;10958;50.892;3.992;2023-02-04T08:40:10;10.20;99.90
21592;DHT22;10958;50.892;3.992;2023-02-04T08:46:03;10.20;99.90
21592;DHT22;10958;50.892;3.992;2023-02-04T08:48:39;10.00;99.90
21592;DHT22;10958;50.892;3.992;2023-02-04T08:51:28;10.00;99.90
21592;DHT22;10958;50.892;3.992;2023-02-04T08:54:38;10.00;99.90
21592;DHT22;10958;50.892;3.992;2023-02-04T08:57:27;10.10;99.90
21592;DHT22;10958;50.892;3.992;2023-02-04T09:00:19;10.10;99.90
21592;DHT22;10958;50.892;3.992;2023-02-04T09:03:15;10.20;99.90
21592;DHT22;10958;50.892;3.992;2023-02-04T09:06:05;10.20;99.90
21592;DHT22;10958;50.892;3.992;2023-02-04T09:09:07;10.30;99.90
21592;DHT22;10958;50.892;3.992;2023-02-04T09:12:17;10.30;99.90
21592;DHT22;10958;50.892;3.992;2023-02-04T09:18:23;10.50;99.90
21592;DHT22;10958;50.892;3.992;2023-02-04T09:21:21;10.60;99.90
21592;DHT22;10958;50.892;3.992;2023-02-04T09:23:51;10.50;99.90
21592;DHT22;10958;50.892;3.992;2023-02-04T09:26:49;10.40;99.90
21592;DHT22;10958;50.892;3.992;2023-02-04T09:29:56;10.50;99.90
21592;DHT22;10958;50.892;3.992;2023-02-04T09:32:48;10.60;99.90
21592;DHT22;10958;50.892;3.992;2023-02-04T09:35:54;10.50;99.90
21592;DHT22;10958;50.892;3.992;2023-02-04T09:38:45;10.80;99.90
21592;DHT22;10958;50.892;3.992;2023-02-04T09:49:05;10.70;99.90
21592;DHT22;10958;50.892;3.992;2023-02-04T10:07:37;11.10;99.90
21592;DHT22;10958;50.892;3.992;2023-02-04T10:13:57;11.30;99.90
21592;DHT22;10958;50.892;3.992;2023-02-04T10:19:49;11.10;99.90
21592;DHT22;10958;50.892;3.992;2023-02-04T10:22:42;11.00;99.90
21592;DHT22;10958;50.892;3.992;2023-02-04T10:25:23;11.10;99.90
21592;DHT22;10958;50.892;3.992;2023-02-04T10:28:01;11.10;99.90
21592;DHT22;10958;50.892;3.992;2023-02-04T10:33:42;11.20;99.90
21592;DHT22;10958;50.892;3.992;2023-02-04T10:40:29;11.40;99.90
21592;DHT22;10958;50.892;3.992;2023-02-04T10:49:21;11.60;99.90
21592;DHT22;10958;50.892;3.992;2023-02-04T10:52:20;11.50;99.90
21592;DHT22;10958;50.892;3.992;2023-02-04T10:55:00;11.50;99.90
21592;DHT22;10958;50.892;3.992;2023-02-04T10:58:26;11.40;99.90
21592;DHT22;10958;50.892;3.992;2023-02-04T11:03:58;11.70;99.90
21592;DHT22;10958;50.892;3.992;2023-02-04T11:06:49;11.90;99.90
21592;DHT22;10958;50.892;3.992;2023-02-04T11:09:28;12.10;99.90
21592;DHT22;10958;50.892;3.992;2023-02-04T11:12:58;12.00;99.90
21592;DHT22;10958;50.892;3.992;2023-02-04T11:21:48;12.60;99.90
21592;DHT22;10958;50.892;3.992;2023-02-04T11:24:55;12.50;99.90
21592;DHT22;10958;50.892;3.992;2023-02-04T11:33:44;12.30;99.90
21592;DHT22;10958;50.892;3.992;2023-02-04T11:36:22;12.40;99.90
21592;DHT22;10958;50.892;3.992;2023-02-04T11:39:05;12.40;99.90
21592;DHT22;10958;50.892;3.992;2023-02-04T11:41:34;12.20;99.90
21592;DHT22;10958;50.892;3.992;2023-02-04T11:47:44;12.10;99.90
21592;DHT22;10958;50.892;3.992;2023-02-04T11:50:31;12.20;99.90
21592;DHT22;10958;50.892;3.992;2023-02-04T11:53:27;12.10;99.90
21592;DHT22;10958;50.892;3.992;2023-02-04T11:56:40;12.10;99.90
21592;DHT22;10958;50.892;3.992;2023-02-04T11:59:11;12.30;99.90
21592;DHT22;10958;50.892;3.992;2023-02-04T12:05:35;12.30;99.90
21592;DHT22;10958;50.892;3.992;2023-02-04T12:08:38;12.50;99.90
21592;DHT22;10958;50.892;3.992;2023-02-04T12:11:27;12.60;99.90
21592;DHT22;10958;50.892;3.992;2023-02-04T12:13:57;12.50;99.90
21592;DHT22;10958;50.892;3.992;2023-02-04T12:16:25;12.40;99.90
21592;DHT22;10958;50.892;3.992;2023-02-04T12:18:50;12.40;99.90
21592;DHT22;10958;50.892;3.992;2023-02-04T12:21:17;12.50;99.90
21592;DHT22;10958;50.892;3.992;2023-02-04T12:23:46;12.30;99.90
21592;DHT22;10958;50.892;3.992;2023-02-04T12:26:12;12.30;99.90
21592;DHT22;10958;50.892;3.992;2023-02-04T12:28:38;12.60;99.90
21592;DHT22;10958;50.892;3.992;2023-02-04T12:31:04;12.50;99.90
21592;DHT22;10958;50.892;3.992;2023-02-04T12:33:30;12.40;99.90
21592;DHT22;10958;50.892;3.992;2023-02-04T12:35:56;12.60;99.90
21592;DHT22;10958;50.892;3.992;2023-02-04T12:38:22;12.70;99.90
21592;DHT22;10958;50.892;3.992;2023-02-04T12:40:48;13.00;99.90
21592;DHT22;10958;50.892;3.992;2023-02-04T12:43:13;13.20;99.90
21592;DHT22;10958;50.892;3.992;2023-02-04T12:45:39;13.10;99.90
21592;DHT22;10958;50.892;3.992;2023-02-04T12:48:10;13.10;99.90
21592;DHT22;10958;50.892;3.992;2023-02-04T12:50:37;13.40;99.90
21592;DHT22;10958;50.892;3.992;2023-02-04T12:53:02;13.40;99.90
21592;DHT22;10958;50.892;3.992;2023-02-04T12:55:29;13.10;99.90
21592;DHT22;10958;50.892;3.992;2023-02-04T12:57:54;12.70;99.90
21592;DHT22;10958;50.892;3.992;2023-02-04T13:00:22;12.30;99.90
21592;DHT22;10958;50.892;3.992;2023-02-04T13:02:48;12.20;99.90
21592;DHT22;10958;50.892;3.992;2023-02-04T13:05:14;12.10;99.90
21592;DHT22;10958;50.892;3.992;2023-02-04T13:07:41;12.00;99.90
21592;DHT22;10958;50.892;3.992;2023-02-04T13:10:09;12.00;99.90
21592;DHT22;10958;50.892;3.992;2023-02-04T13:12:35;12.00;99.90
21592;DHT22;10958;50.892;3.992;2023-02-04T13:15:02;12.10;99.90
21592;DHT22;10958;50.892;3.992;2023-02-04T13:17:27;12.40;99.90
21592;DHT22;10958;50.892;3.992;2023-02-04T13:19:58;12.40;99.90
21592;DHT22;10958;50.892;3.992;2023-02-04T13:22:25;12.60;99.90
21592;DHT22;10958;50.892;3.992;2023-02-04T13:24:53;12.40;99.90
21592;DHT22;10958;50.892;3.992;2023-02-04T13:27:19;12.30;99.90
21592;DHT22;10958;50.892;3.992;2023-02-04T13:33:42;12.10;99.90
21592;DHT22;10958;50.892;3.992;2023-02-04T13:36:10;11.90;99.90
21592;DHT22;10958;50.892;3.992;2023-02-04T13:38:39;11.80;99.90
21592;DHT22;10958;50.892;3.992;2023-02-04T13:41:08;11.80;99.90
21592;DHT22;10958;50.892;3.992;2023-02-04T13:43:56;11.80;99.90
21592;DHT22;10958;50.892;3.992;2023-02-04T13:46:47;11.70;99.90
21592;DHT22;10958;50.892;3.992;2023-02-04T13:49:22;11.80;99.90
21592;DHT22;10958;50.892;3.992;2023-02-04T13:51:53;11.70;99.90
21592;DHT22;10958;50.892;3.992;2023-02-04T13:55:01;11.80;99.90
21592;DHT22;10958;50.892;3.992;2023-02-04T13:57:36;11.80;99.90
21592;DHT22;10958;50.892;3.992;2023-02-04T14:03:05;11.90;99.90
21592;DHT22;10958;50.892;3.992;2023-02-04T14:05:31;12.20;99.90
21592;DHT22;10958;50.892;3.992;2023-02-04T14:07:57;12.00;99.90
21592;DHT22;10958;50.892;3.992;2023-02-04T14:10:23;11.80;99.90
21592;DHT22;10958;50.892;3.992;2023-02-04T14:12:51;11.80;99.90
21592;DHT22;10958;50.892;3.992;2023-02-04T14:15:18;11.60;99.90
21592;DHT22;10958;50.892;3.992;2023-02-04T14:17:44;11.60;99.90
21592;DHT22;10958;50.892;3.992;2023-02-04T14:20:34;11.70;99.90
21592;DHT22;10958;50.892;3.992;2023-02-04T14:23:08;12.10;99.90
21592;DHT22;10958;50.892;3.992;2023-02-04T14:25:55;12.20;99.90
21592;DHT22;10958;50.892;3.992;2023-02-04T14:28:47;12.00;99.90
21592;DHT22;10958;50.892;3.992;2023-02-04T14:31:15;11.90;99.90
21592;DHT22;10958;50.892;3.992;2023-02-04T14:33:44;11.90;99.90
21592;DHT22;10958;50.892;3.992;2023-02-04T14:36:12;11.90;99.90
21592;DHT22;10958;50.892;3.992;2023-02-04T14:38:38;11.80;99.90
21592;DHT22;10958;50.892;3.992;2023-02-04T14:41:04;11.80;99.90
21592;DHT22;10958;50.892;3.992;2023-02-04T14:43:29;11.70;99.90
21592;DHT22;10958;50.892;3.992;2023-02-04T14:46:02;11.50;99.90
21592;DHT22;10958;50.892;3.992;2023-02-04T14:48:31;11.50;99.90
21592;DHT22;10958;50.892;3.992;2023-02-04T14:50:56;11.40;99.90
21592;DHT22;10958;50.892;3.992;2023-02-04T14:53:22;11.30;99.90
21592;DHT22;10958;50.892;3.992;2023-02-04T14:55:48;11.10;99.90
21592;DHT22;10958;50.892;3.992;2023-02-04T14:58:17;11.10;99.90
21592;DHT22;10958;50.892;3.992;2023-02-04T15:00:45;11.00;99.90
21592;DHT22;10958;50.892;3.992;2023-02-04T15:03:12;11.00;99.90
21592;DHT22;10958;50.892;3.992;2023-02-04T15:05:38;10.90;99.90
21592;DHT22;10958;50.892;3.992;2023-02-04T15:10:58;11.00;99.90
21592;DHT22;10958;50.892;3.992;2023-02-04T15:16:33;11.10;99.90
21592;DHT22;10958;50.892;3.992;2023-02-04T15:19:06;11.10;99.90
21592;DHT22;10958;50.892;3.992;2023-02-04T15:21:55;11.30;99.90
21592;DHT22;10958;50.892;3.992;2023-02-04T15:24:33;11.50;99.90
21592;DHT22;10958;50.892;3.992;2023-02-04T15:26:59;11.60;99.90
21592;DHT22;10958;50.892;3.992;2023-02-04T15:29:26;11.50;99.90
21592;DHT22;10958;50.892;3.992;2023-02-04T15:31:51;11.30;99.90
21592;DHT22;10958;50.892;3.992;2023-02-04T15:34:20;11.30;99.90
21592;DHT22;10958;50.892;3.992;2023-02-04T15:36:45;11.30;99.90
21592;DHT22;10958;50.892;3.992;2023-02-04T15:39:13;11.20;99.90
21592;DHT22;10958;50.892;3.992;2023-02-04T15:41:39;11.10;99.90
21592;DHT22;10958;50.892;3.992;2023-02-04T15:44:05;11.00;99.90
21592;DHT22;10958;50.892;3.992;2023-02-04T15:46:45;11.20;99.90
21592;DHT22;10958;50.892;3.992;2023-02-04T15:49:14;11.50;99.90
21592;DHT22;10958;50.892;3.992;2023-02-04T15:52:06;11.60;99.90
21592;DHT22;10958;50.892;3.992;2023-02-04T15:54:45;11.50;99.90
21592;DHT22;10958;50.892;3.992;2023-02-04T15:57:26;11.50;99.90
21592;DHT22;10958;50.892;3.992;2023-02-04T16:00:30;11.70;99.90
21592;DHT22;10958;50.892;3.992;2023-02-04T16:02:59;11.80;99.90
21592;DHT22;10958;50.892;3.992;2023-02-04T16:05:42;11.80;99.90
21592;DHT22;10958;50.892;3.992;2023-02-04T16:08:11;11.70;99.90
21592;DHT22;10958;50.892;3.992;2023-02-04T16:11:01;11.50;99.90
21592;DHT22;10958;50.892;3.992;2023-02-04T16:13:50;11.40;99.90
21592;DHT22;10958;50.892;3.992;2023-02-04T16:22:58;11.30;99.90
21592;DHT22;10958;50.892;3.992;2023-02-04T16:25:33;11.80;99.90
21592;DHT22;10958;50.892;3.992;2023-02-04T16:28:31;11.70;99.90
21592;DHT22;10958;50.892;3.992;2023-02-04T16:33:56;11.20;99.90
21592;DHT22;10958;50.892;3.992;2023-02-04T16:36:40;11.10;99.90
21592;DHT22;10958;50.892;3.992;2023-02-04T16:39:15;11.10;99.90
21592;DHT22;10958;50.892;3.992;2023-02-04T16:41:58;11.20;99.90
21592;DHT22;10958;50.892;3.992;2023-02-04T16:44:29;11.30;99.90
21592;DHT22;10958;50.892;3.992;2023-02-04T16:46:55;11.30;99.90
21592;DHT22;10958;50.892;3.992;2023-02-04T16:49:41;11.20;99.90
21592;DHT22;10958;50.892;3.992;2023-02-04T16:52:09;11.20;99.90
21592;DHT22;10958;50.892;3.992;2023-02-04T16:54:41;11.10;99.90
21592;DHT22;10958;50.892;3.992;2023-02-04T16:57:16;11.40;99.90
21592;DHT22;10958;50.892;3.992;2023-02-04T16:59:43;11.70;99.90
21592;DHT22;10958;50.892;3.992;2023-02-04T17:02:09;11.60;99.90
21592;DHT22;10958;50.892;3.992;2023-02-04T17:04:35;11.20;99.90
21592;DHT22;10958;50.892;3.992;2023-02-04T17:07:01;11.00;99.90
21592;DHT22;10958;50.892;3.992;2023-02-04T17:09:27;10.70;99.90
21592;DHT22;10958;50.892;3.992;2023-02-04T17:11:55;10.70;99.90
21592;DHT22;10958;50.892;3.992;2023-02-04T17:14:24;11.00;99.90
21592;DHT22;10958;50.892;3.992;2023-02-04T17:16:53;11.00;99.90
21592;DHT22;10958;50.892;3.992;2023-02-04T17:19:37;10.90;99.90
21592;DHT22;10958;50.892;3.992;2023-02-04T17:22:06;10.80;99.90
21592;DHT22;10958;50.892;3.992;2023-02-04T17:24:35;11.00;99.90
21592;DHT22;10958;50.892;3.992;2023-02-04T17:27:10;11.20;99.90
21592;DHT22;10958;50.892;3.992;2023-02-04T17:29:36;11.10;99.90
21592;DHT22;10958;50.892;3.992;2023-02-04T17:32:02;11.10;99.90
21592;DHT22;10958;50.892;3.992;2023-02-04T17:34:36;11.20;99.90
21592;DHT22;10958;50.892;3.992;2023-02-04T17:37:11;11.30;99.90
21592;DHT22;10958;50.892;3.992;2023-02-04T17:39:42;11.10;99.90
21592;DHT22;10958;50.892;3.992;2023-02-04T17:42:08;10.90;99.90
21592;DHT22;10958;50.892;3.992;2023-02-04T17:44:37;10.70;99.90
21592;DHT22;10958;50.892;3.992;2023-02-04T17:47:02;10.50;99.90
21592;DHT22;10958;50.892;3.992;2023-02-04T17:49:28;10.50;99.90
21592;DHT22;10958;50.892;3.992;2023-02-04T17:51:54;10.50;99.90
21592;DHT22;10958;50.892;3.992;2023-02-04T17:54:23;10.60;99.90
21592;DHT22;10958;50.892;3.992;2023-02-04T17:56:49;10.40;99.90
21592;DHT22;10958;50.892;3.992;2023-02-04T17:59:18;10.50;99.90
21592;DHT22;10958;50.892;3.992;2023-02-04T18:01:46;10.50;99.90
21592;DHT22;10958;50.892;3.992;2023-02-04T18:04:13;10.30;99.90
21592;DHT22;10958;50.892;3.992;2023-02-04T18:06:41;10.20;99.90
21592;DHT22;10958;50.892;3.992;2023-02-04T18:09:16;10.10;99.90